Terminal Aerodrome Forecast
Issued by NWS

Home | Current Version | Previous Version | Text Only | Print | Product List | Glossary On
Versions: 1 2 3 4 5 6 7 8 9 10 11 12 13 14 15 16 17 18 19 20
000
FTUS43 KJKL 210540
TAFSME
TAF
KSME 210540Z 2106/2206 16004KT P6SM VCSH SCT020 BKN050
     FM211200 18004KT 6SM SHRA VCTS OVC025CB
     FM211400 19006KT 6SM BR VCSH OVC020
     FM211800 21008KT P6SM -SHRA VCTS OVC035CB
     FM212300 23006KT P6SM VCTS OVC045CB
     FM220000 23005KT P6SM OVC060=

USA.gov is the U.S. government's official web portal to all federal, state and local government web resources and services.